Terminal Aerodrome Forecast
Issued by NWS

Home | Current Version | Previous Version | Text Only | Print | Product List | Glossary On
Versions: 1 2 3 4 5 6 7 8 9 10 11 12 13 14 15
000
FTUS43 KIND 271000 AAA
TAFLAF
TAF AMD
KLAF 271040Z 2711/2806 21008KT 5SM -SHRA BR BKN009 OVC012
     FM271600 24010KT 5SM -RA BR OVC010
     FM272200 27008KT 6SM -SHRA BR OVC012
      AMD LTD TO CLD VIS AND WIND TIL 271400=

USA.gov is the U.S. government's official web portal to all federal, state and local government web resources and services.